Time;durP1;ratioP1;P1;durP2;ratioP2;P2;SDS_P1;SDS_P2;PMS_P1;PMS_P2;Temp;Humidity;BMP_temperature;BMP_pressure;BME280_temperature;BME280_humidity;BME280_pressure;Samples;Min_cycle;Max_cycle;Signal;HPM_P1;HPM_P2
2023/01/03 00:03:06;;;;;;;7.90;1.70;;;;;;;6.61;85.50;99807.91;102398;1299;70188;-66
2023/01/03 00:05:54;;;;;;;6.40;1.60;;;;;;;6.65;85.60;99810.20;102387;1295;72084;-65
2023/01/03 00:08:43;;;;;;;5.50;1.30;;;;;;;6.66;85.74;99811.00;102350;1299;59879;-65
2023/01/03 00:14:42;;;;;;;5.30;1.50;;;;;;;6.61;86.13;99809.52;102403;1291;74059;-64
2023/01/03 00:17:31;;;;;;;6.10;1.50;;;;;;;6.62;86.32;99813.15;102527;1295;68574;-64
2023/01/03 00:20:21;;;;;;;4.90;1.30;;;;;;;6.62;86.45;99819.33;102565;1291;72708;-67
2023/01/03 00:23:09;;;;;;;6.80;1.80;;;;;;;6.59;87.18;99823.95;102176;1295;60380;-64
2023/01/03 00:25:57;;;;;;;5.40;1.30;;;;;;;6.56;87.72;99820.83;102383;1298;61184;-64
2023/01/03 00:28:46;;;;;;;5.00;1.30;;;;;;;6.54;88.28;99821.44;102400;1298;72996;-65
2023/01/03 00:31:38;;;;;;;5.60;1.60;;;;;;;6.54;88.51;99823.55;102367;1298;66868;-65
2023/01/03 00:34:28;;;;;;;5.00;1.40;;;;;;;6.51;89.00;99830.45;102388;1295;73015;-65
2023/01/03 00:37:16;;;;;;;6.80;1.50;;;;;;;6.49;89.46;99840.65;102425;1299;60443;-65
2023/01/03 00:40:05;;;;;;;6.10;1.10;;;;;;;6.47;89.76;99842.84;102461;1298;59750;-66
2023/01/03 00:46:02;;;;;;;6.90;1.40;;;;;;;6.44;90.08;99842.85;102182;1295;67815;-65
2023/01/03 00:48:51;;;;;;;5.10;1.10;;;;;;;6.44;90.07;99845.56;102176;1299;73539;-63
2023/01/03 00:51:41;;;;;;;6.50;1.90;;;;;;;6.41;90.61;99847.45;102558;1299;59684;-66
2023/01/03 00:54:29;;;;;;;5.50;1.10;;;;;;;6.37;90.89;99852.48;102405;1297;61434;-64
2023/01/03 00:57:17;;;;;;;6.90;1.30;;;;;;;6.35;91.59;99858.98;102397;1294;73863;-63
2023/01/03 01:00:07;;;;;;;6.70;1.50;;;;;;;6.34;92.55;99863.10;102191;1291;67822;-64
2023/01/03 01:02:57;;;;;;;7.50;1.20;;;;;;;6.32;93.45;99867.45;102362;1295;72308;-66
2023/01/03 01:05:46;;;;;;;6.20;1.10;;;;;;;6.28;94.25;99872.09;102611;1291;59660;-64
2023/01/03 01:08:34;;;;;;;5.50;1.50;;;;;;;6.25;94.88;99876.84;102291;1298;60293;-65
2023/01/03 01:11:24;;;;;;;5.90;1.60;;;;;;;6.22;95.12;99874.23;102413;1291;73102;-64
2023/01/03 01:14:18;;;;;;;5.20;1.50;;;;;;;6.19;95.96;99877.61;102419;1297;68816;-65
2023/01/03 01:17:08;;;;;;;9.80;1.60;;;;;;;6.16;96.24;99875.29;102600;1295;72694;-64
2023/01/03 01:19:56;;;;;;;5.60;1.40;;;;;;;6.15;96.41;99873.06;102350;1295;59705;-64
2023/01/03 01:22:45;;;;;;;5.80;1.40;;;;;;;6.14;96.29;99872.41;102386;1295;60032;-64
2023/01/03 01:25:35;;;;;;;7.40;2.20;;;;;;;6.13;96.80;99875.98;102534;1290;74245;-64
2023/01/03 01:28:25;;;;;;;12.20;2.30;;;;;;;6.11;97.03;99877.57;102213;1291;67809;-63
2023/01/03 01:31:17;;;;;;;8.50;1.70;;;;;;;6.09;97.29;99885.21;102649;1292;73731;-64
2023/01/03 01:34:06;;;;;;;8.10;1.70;;;;;;;6.07;97.25;99883.61;102361;1291;59698;-64
2023/01/03 01:36:54;;;;;;;5.70;1.40;;;;;;;6.08;97.05;99886.36;102411;1298;60062;-62
2023/01/03 01:39:43;;;;;;;5.80;1.50;;;;;;;6.10;97.38;99888.71;102424;1299;74064;-63
2023/01/03 01:45:38;;;;;;;9.40;1.40;;;;;;;6.07;96.58;99892.59;102246;1297;72151;-64
2023/01/03 01:48:27;;;;;;;7.40;1.70;;;;;;;6.06;96.35;99893.19;102391;1297;60657;-63
2023/01/03 01:51:18;;;;;;;5.80;1.50;;;;;;;6.06;96.34;99895.30;102382;1289;60156;-66
2023/01/03 01:54:08;;;;;;;7.20;1.60;;;;;;;6.05;96.70;99895.91;102526;1292;73981;-63
2023/01/03 01:56:57;;;;;;;6.90;1.70;;;;;;;6.03;96.18;99903.40;102394;1291;67011;-63
2023/01/03 01:59:46;;;;;;;7.30;1.40;;;;;;;6.03;96.33;99907.48;102485;1297;72987;-63
2023/01/03 02:02:34;;;;;;;9.40;1.80;;;;;;;6.02;96.58;99907.88;102375;1297;59783;-62
2023/01/03 02:05:25;;;;;;;6.10;1.50;;;;;;;6.01;96.27;99911.80;102448;1292;60624;-63
2023/01/03 02:08:14;;;;;;;10.10;1.90;;;;;;;5.98;96.04;99911.98;102380;1291;74089;-62
2023/01/03 02:11:42;;;;;;;5.90;1.50;;;;;;;5.96;95.74;99916.45;102373;1297;67801;-63
2023/01/03 02:14:53;;;;;;;5.70;1.30;;;;;;;5.91;94.58;99922.21;102343;1295;71767;-63
2023/01/03 02:18:35;;;;;;;7.30;1.60;;;;;;;5.89;93.06;99921.48;102624;1291;59750;-62
2023/01/03 02:21:52;;;;;;;7.20;1.70;;;;;;;5.86;91.71;99927.64;101969;1305;60103;-64
2023/01/03 02:25:26;;;;;;;9.40;1.80;;;;;;;5.82;91.10;99935.27;101346;1310;73060;-63
2023/01/03 02:28:59;;;;;;;6.70;1.60;;;;;;;5.77;90.35;99932.56;101407;1310;66433;-64
2023/01/03 02:31:53;;;;;;;7.50;1.80;;;;;;;5.71;88.98;99943.14;101035;1303;227287;-64
2023/01/03 02:35:29;;;;;;;6.60;1.30;;;;;;;5.69;88.61;99938.85;101353;1310;59585;-65
2023/01/03 02:38:30;;;;;;;6.90;1.40;;;;;;;5.68;87.34;99938.76;101216;1310;59652;-66
2023/01/03 02:46:06;;;;;;;7.50;1.70;;;;;;;5.69;84.60;99940.10;101334;1310;68220;-67
2023/01/03 02:49:27;;;;;;;5.70;1.40;;;;;;;5.66;84.14;99935.54;101206;1305;74670;-66
2023/01/03 02:52:28;;;;;;;7.80;1.60;;;;;;;5.60;84.55;99942.93;101223;1303;59823;-66
2023/01/03 02:55:24;;;;;;;6.50;1.30;;;;;;;5.55;84.40;99940.39;101341;1303;59666;-66
2023/01/03 02:58:20;;;;;;;5.60;1.50;;;;;;;5.56;84.68;99946.86;101479;1307;74065;-66
2023/01/03 03:01:12;;;;;;;5.50;1.50;;;;;;;5.58;84.96;99953.62;101872;1305;67660;-67
2023/01/03 03:04:02;;;;;;;6.40;1.40;;;;;;;5.58;85.87;99951.84;102361;1299;73216;-66
2023/01/03 03:07:08;;;;;;;8.10;1.50;;;;;;;5.54;85.38;99955.92;102208;1298;59677;-65
2023/01/03 03:13:29;;;;;;;7.70;1.80;;;;;;;5.43;84.50;99960.10;102387;1291;72868;-65
2023/01/03 03:26:17;;;;;;;7.20;1.70;;;;;;;5.22;83.68;99965.70;102507;1289;61400;-65
2023/01/03 03:29:16;;;;;;;6.60;1.60;;;;;;;5.20;83.79;99971.77;102555;1291;73390;-64
2023/01/03 03:32:05;;;;;;;9.90;1.90;;;;;;;5.21;83.74;99980.35;102535;1298;67847;-65
2023/01/03 03:34:58;;;;;;;7.30;1.40;;;;;;;5.22;83.70;99985.58;102521;1291;73804;-67
2023/01/03 03:37:51;;;;;;;7.30;1.40;;;;;;;5.23;83.94;99986.56;102377;1291;59751;-64
2023/01/03 03:48:24;;;;;;;8.10;1.50;;;;;;;5.34;83.10;99994.21;102551;1299;67604;-65
2023/01/03 03:51:18;;;;;;;5.20;1.10;;;;;;;5.39;83.07;99996.59;102459;1291;72672;-65
2023/01/03 03:54:13;;;;;;;7.10;1.50;;;;;;;5.42;82.38;99995.35;102324;1291;60390;-64
2023/01/03 03:57:30;;;;;;;6.50;1.30;;;;;;;5.43;81.93;99991.58;102262;1289;60166;-63
2023/01/03 04:00:26;;;;;;;6.10;1.40;;;;;;;5.44;81.26;100001.55;102476;1289;73817;-63
2023/01/03 04:03:16;;;;;;;6.70;1.50;;;;;;;5.45;80.97;100005.20;102367;1289;67523;-63
2023/01/03 04:06:32;;;;;;;6.00;1.30;;;;;;;5.45;81.29;100006.06;102498;1283;72406;-64
2023/01/03 04:09:21;;;;;;;5.40;1.40;;;;;;;5.44;80.28;100008.58;101708;1291;1003796;-64
2023/01/03 04:12:10;;;;;;;6.20;1.10;;;;;;;5.44;79.74;100008.75;102375;1292;61346;-64
2023/01/03 04:14:59;;;;;;;6.80;1.50;;;;;;;5.44;80.05;100007.69;102347;1297;72818;-65
2023/01/03 04:17:47;;;;;;;7.20;1.30;;;;;;;5.43;79.42;100005.66;102601;1290;65836;-69
2023/01/03 04:20:36;;;;;;;6.50;1.30;;;;;;;5.42;79.24;100010.45;102075;1299;72868;-65
2023/01/03 04:23:24;;;;;;;6.70;1.40;;;;;;;5.42;79.60;100015.05;102296;1299;59687;-64
2023/01/03 04:26:13;;;;;;;7.00;1.40;;;;;;;5.41;79.97;100015.64;102397;1297;60824;-64
2023/01/03 04:29:02;;;;;;;5.70;1.10;;;;;;;5.40;80.43;100008.85;102299;1297;73442;-64
2023/01/03 04:31:50;;;;;;;7.10;1.70;;;;;;;5.37;80.20;100006.39;102278;1289;67089;-65
2023/01/03 04:34:38;;;;;;;6.80;1.40;;;;;;;5.35;80.56;100009.83;102328;1291;72892;-65
2023/01/03 04:37:27;;;;;;;6.50;1.20;;;;;;;5.34;81.06;100007.25;102156;1294;60118;-64
2023/01/03 04:40:15;;;;;;;5.70;1.30;;;;;;;5.31;81.43;100008.30;102382;1299;60348;-63
2023/01/03 04:46:12;;;;;;;8.10;1.50;;;;;;;5.19;80.60;100012.13;102358;1291;68258;-65
2023/01/03 04:49:02;;;;;;;6.40;1.30;;;;;;;5.14;80.69;100026.48;102125;1297;73211;-64
2023/01/03 04:51:50;;;;;;;6.10;1.50;;;;;;;5.08;79.82;100027.85;102385;1294;59677;-64
2023/01/03 04:54:41;;;;;;;5.70;1.60;;;;;;;5.03;79.60;100034.27;102369;1294;60283;-63
2023/01/03 04:57:29;;;;;;;8.70;1.50;;;;;;;5.01;79.01;100041.46;102533;1292;71888;-64
2023/01/03 05:00:17;;;;;;;6.60;1.60;;;;;;;5.00;77.78;100041.84;102305;1297;69100;-65
2023/01/03 05:03:06;;;;;;;7.40;1.40;;;;;;;5.00;77.67;100048.70;102586;1289;73663;-65
2023/01/03 05:05:59;;;;;;;6.70;1.40;;;;;;;4.99;77.57;100050.54;102464;1295;59676;-65
2023/01/03 05:08:48;;;;;;;7.90;1.40;;;;;;;4.97;78.05;100047.98;102441;1295;60224;-65
2023/01/03 05:11:37;;;;;;;5.70;1.30;;;;;;;4.94;77.89;100043.73;102261;1291;73384;-66
2023/01/03 05:14:26;;;;;;;4.80;1.10;;;;;;;4.93;78.17;100043.29;102519;1297;68102;-63
2023/01/03 05:17:15;;;;;;;5.70;1.40;;;;;;;4.90;78.14;100045.90;102404;1299;73117;-64
2023/01/03 05:26:24;;;;;;;6.90;1.40;;;;;;;4.82;78.90;100040.39;102371;1299;74245;-66
2023/01/03 05:29:16;;;;;;;7.60;1.60;;;;;;;4.79;79.05;100029.30;102360;1299;68850;-66
2023/01/03 05:32:05;;;;;;;5.60;1.30;;;;;;;4.75;79.03;100042.29;102401;1299;73414;-66
2023/01/03 05:34:56;;;;;;;6.80;1.70;;;;;;;4.70;79.01;100033.80;102146;1297;59692;-64
2023/01/03 05:37:45;;;;;;;5.90;1.30;;;;;;;4.66;79.12;100037.89;102565;1294;60742;-65
2023/01/03 05:40:45;;;;;;;6.90;1.30;;;;;;;4.64;79.63;100046.38;102587;1297;74613;-67
2023/01/03 05:43:59;;;;;;;7.70;1.40;;;;;;;4.63;80.21;100053.16;102395;1292;67888;-66
2023/01/03 05:46:48;;;;;;;5.30;1.20;;;;;;;4.63;80.53;100053.70;102380;1292;73663;-65
2023/01/03 05:49:36;;;;;;;7.20;1.40;;;;;;;4.61;80.55;100049.38;102138;1292;59713;-66
2023/01/03 05:52:24;;;;;;;7.50;1.20;;;;;;;4.59;80.98;100048.95;102336;1289;60302;-65
2023/01/03 05:55:13;;;;;;;8.70;1.50;;;;;;;4.58;80.86;100052.73;102341;1291;73060;-66
2023/01/03 05:58:01;;;;;;;6.80;1.50;;;;;;;4.55;81.07;100059.69;102669;1289;68647;-65
2023/01/03 06:00:49;;;;;;;6.90;1.60;;;;;;;4.52;81.57;100072.70;102373;1299;73093;-66
2023/01/03 06:03:38;;;;;;;6.70;1.60;;;;;;;4.49;81.99;100075.67;102240;1299;59884;-66
2023/01/03 06:06:27;;;;;;;6.40;1.30;;;;;;;4.48;82.49;100080.13;102497;1291;61099;-66
2023/01/03 06:09:17;;;;;;;8.90;2.00;;;;;;;4.47;82.51;100079.13;102446;1295;74004;-67
2023/01/03 06:12:06;;;;;;;7.70;1.40;;;;;;;4.46;82.83;100083.56;102120;1291;67029;-65
2023/01/03 06:14:54;;;;;;;6.30;1.40;;;;;;;4.44;82.83;100088.41;102482;1299;71678;-65
2023/01/03 06:17:56;;;;;;;6.40;1.30;;;;;;;4.41;82.80;100089.04;102662;1297;59643;-66
2023/01/03 06:20:45;;;;;;;7.70;1.70;;;;;;;4.39;83.25;100094.08;102346;1291;59658;-64
2023/01/03 06:23:34;;;;;;;9.60;1.50;;;;;;;4.39;83.58;100102.39;102358;1299;73886;-65
2023/01/03 06:26:25;;;;;;;7.00;1.80;;;;;;;4.37;83.43;100112.28;102347;1299;67844;-65
2023/01/03 06:29:13;;;;;;;9.30;1.70;;;;;;;4.34;83.57;100118.23;102484;1283;73365;-65
2023/01/03 06:32:04;;;;;;;7.10;1.40;;;;;;;4.33;83.50;100125.30;102494;1291;59838;-64
2023/01/03 06:34:57;;;;;;;9.00;1.40;;;;;;;4.32;83.94;100125.35;102185;1297;60188;-66
2023/01/03 06:37:45;;;;;;;7.10;1.80;;;;;;;4.31;83.98;100123.48;102496;1299;73801;-63
2023/01/03 06:40:34;;;;;;;7.50;1.70;;;;;;;4.33;83.82;100134.13;102529;1294;68320;-65
2023/01/03 06:43:32;;;;;;;10.10;1.80;;;;;;;4.33;83.91;100138.16;102434;1295;73827;-65
2023/01/03 06:55:45;;;;;;;8.60;1.90;;;;;;;4.27;83.25;100129.65;102347;1291;68313;-66
2023/01/03 06:58:43;;;;;;;10.10;1.80;;;;;;;4.28;83.20;100138.76;102552;1299;72194;-66
2023/01/03 07:01:31;;;;;;;11.00;1.90;;;;;;;4.28;83.08;100139.11;102566;1294;60026;-64
2023/01/03 07:04:22;;;;;;;8.00;2.00;;;;;;;4.25;83.00;100143.79;102516;1297;59693;-67
2023/01/03 07:07:10;;;;;;;7.30;2.10;;;;;;;4.24;82.65;100144.18;102454;1297;72966;-69
2023/01/03 07:10:01;;;;;;;6.60;1.50;;;;;;;4.23;81.87;100138.66;102523;1299;68907;-64
2023/01/03 07:15:58;;;;;;;8.90;1.60;;;;;;;4.25;82.02;100148.72;102444;1299;59773;-66
2023/01/03 07:18:46;;;;;;;9.30;1.80;;;;;;;4.24;79.84;100155.79;102457;1299;61404;-64
2023/01/03 07:21:43;;;;;;;9.80;1.90;;;;;;;4.26;79.36;100160.98;102585;1298;73967;-64
2023/01/03 07:24:31;;;;;;;7.80;1.70;;;;;;;4.26;79.42;100171.17;102180;1291;69145;-67
2023/01/03 07:27:21;;;;;;;7.00;1.60;;;;;;;4.24;79.23;100167.39;102461;1292;73578;-64
2023/01/03 07:30:10;;;;;;;7.20;1.40;;;;;;;4.22;79.09;100170.30;102386;1291;59760;-66
2023/01/03 07:32:59;;;;;;;14.50;2.10;;;;;;;4.21;79.11;100167.00;102495;1297;60832;-66
2023/01/03 07:35:47;;;;;;;7.40;1.70;;;;;;;4.20;79.45;100174.61;102489;1296;72240;-64
2023/01/03 07:38:37;;;;;;;8.80;1.50;;;;;;;4.19;79.35;100177.84;102459;1292;68575;-64
2023/01/03 07:43:35;;;;;;;7.80;1.30;;;;;;;4.19;79.27;100182.39;102654;1289;71929;-64
2023/01/03 07:44:34;;;;;;;6.20;1.10;;;;;;;4.26;79.47;100190.31;102452;1299;59661;-66
2023/01/03 07:47:23;;;;;;;10.80;1.70;;;;;;;4.30;79.66;100191.35;102430;1298;60869;-66
2023/01/03 07:50:12;;;;;;;8.90;1.40;;;;;;;4.32;79.47;100186.69;102606;1291;73286;-66
2023/01/03 07:53:01;;;;;;;13.60;2.10;;;;;;;4.39;79.86;100178.41;102482;1281;68592;-64
2023/01/03 07:55:50;;;;;;;6.70;1.60;;;;;;;4.45;80.01;100194.25;102423;1299;73589;-66
2023/01/03 07:58:42;;;;;;;10.70;1.70;;;;;;;4.58;80.01;100193.14;102510;1294;59686;-64
2023/01/03 08:01:32;;;;;;;8.70;1.60;;;;;;;4.66;79.82;100198.34;102527;1299;60314;-63
2023/01/03 08:04:21;;;;;;;8.10;1.50;;;;;;;4.71;80.05;100205.27;102196;1296;74034;-65
2023/01/03 08:07:13;;;;;;;9.40;1.80;;;;;;;4.74;79.86;100215.31;102540;1297;69207;-63
2023/01/03 08:13:18;;;;;;;7.90;1.60;;;;;;;4.84;80.18;100225.55;102344;1297;59764;-66
2023/01/03 08:16:10;;;;;;;9.20;1.70;;;;;;;4.88;80.90;100223.77;102374;1291;61374;-63
2023/01/03 08:18:58;;;;;;;10.30;2.50;;;;;;;4.89;81.62;100226.34;102453;1289;73044;-64
2023/01/03 08:21:46;;;;;;;8.70;1.90;;;;;;;4.86;81.54;100234.39;102544;1297;69281;-64
2023/01/03 08:24:35;;;;;;;8.70;2.10;;;;;;;4.84;81.61;100244.91;102398;1299;72127;-67
2023/01/03 08:27:24;;;;;;;9.50;1.60;;;;;;;4.84;81.79;100240.68;102676;1294;59807;-61
2023/01/03 08:30:13;;;;;;;8.80;1.70;;;;;;;4.85;81.31;100239.91;102641;1294;60034;-64
2023/01/03 08:33:03;;;;;;;8.20;1.70;;;;;;;4.86;80.71;100247.23;102457;1292;73158;-64
2023/01/03 08:36:02;;;;;;;7.10;1.80;;;;;;;4.86;80.61;100258.98;102429;1290;68978;-63
2023/01/03 08:39:00;;;;;;;9.10;1.60;;;;;;;4.88;80.19;100256.80;102405;1295;72400;-63
2023/01/03 08:42:02;;;;;;;7.50;1.70;;;;;;;4.90;80.42;100270.76;102498;1299;59829;-64
2023/01/03 08:45:01;;;;;;;7.60;1.50;;;;;;;4.94;80.62;100267.75;102581;1294;60172;-63
2023/01/03 08:47:49;;;;;;;7.80;1.80;;;;;;;4.97;80.27;100277.48;102442;1299;72112;-66
2023/01/03 08:50:40;;;;;;;7.00;1.50;;;;;;;4.97;80.37;100277.48;102281;1291;69305;-66
2023/01/03 08:53:28;;;;;;;9.40;1.50;;;;;;;4.94;79.90;100279.00;102415;1290;73681;-64
2023/01/03 08:56:20;;;;;;;5.70;1.40;;;;;;;4.96;79.53;100279.80;102550;1297;59659;-65
2023/01/03 08:59:09;;;;;;;9.10;1.90;;;;;;;4.99;79.20;100284.39;102409;1299;60315;-67
2023/01/03 09:02:00;;;;;;;9.70;1.70;;;;;;;5.00;79.16;100290.67;102427;1294;72100;-65
2023/01/03 09:04:48;;;;;;;8.50;1.80;;;;;;;5.01;79.02;100292.92;101072;1297;1003784;-65
2023/01/03 09:07:37;;;;;;;9.60;2.30;;;;;;;5.03;79.35;100292.79;102479;1291;73163;-67
2023/01/03 09:10:25;;;;;;;11.90;1.80;;;;;;;5.06;79.08;100294.23;102343;1299;59639;-63
2023/01/03 09:13:14;;;;;;;11.30;2.20;;;;;;;5.07;78.41;100290.48;102493;1299;59776;-66
2023/01/03 09:16:09;;;;;;;9.90;2.10;;;;;;;5.09;77.96;100299.89;102381;1292;74060;-65
2023/01/03 09:18:58;;;;;;;8.20;2.10;;;;;;;5.09;78.20;100302.00;102688;1291;68823;-64
2023/01/03 09:21:47;;;;;;;8.40;1.80;;;;;;;5.12;78.27;100310.97;102484;1291;72639;-65
2023/01/03 09:24:36;;;;;;;9.60;1.80;;;;;;;5.13;78.45;100312.01;102517;1299;59670;-65
2023/01/03 09:27:24;;;;;;;7.70;1.70;;;;;;;5.14;78.89;100316.88;102377;1292;60359;-66
2023/01/03 09:30:15;;;;;;;7.40;2.30;;;;;;;5.13;79.07;100314.63;102445;1299;73078;-66
2023/01/03 09:33:03;;;;;;;9.50;2.00;;;;;;;5.15;79.29;100320.17;102426;1299;69014;-68
2023/01/03 09:35:53;;;;;;;10.00;2.10;;;;;;;5.19;79.77;100324.86;102503;1299;73602;-66
2023/01/03 09:38:42;;;;;;;8.70;2.00;;;;;;;5.22;79.78;100325.28;102456;1290;59664;-70
2023/01/03 09:41:32;;;;;;;8.60;1.60;;;;;;;5.26;80.03;100334.73;102455;1282;60150;-67
2023/01/03 09:44:20;;;;;;;9.50;1.70;;;;;;;5.25;80.42;100338.80;102366;1292;74082;-65
2023/01/03 09:47:18;;;;;;;7.90;1.90;;;;;;;5.26;80.51;100341.39;102470;1295;68882;-66
2023/01/03 09:50:21;;;;;;;9.50;2.10;;;;;;;5.24;81.27;100341.14;102375;1291;72733;-64
2023/01/03 10:03:44;;;;;;;8.60;2.10;;;;;;;5.62;81.11;100349.25;102309;1290;66718;-65
2023/01/03 10:07:03;;;;;;;7.90;1.70;;;;;;;5.65;80.94;100352.26;102601;1292;73481;-64
2023/01/03 10:10:02;;;;;;;9.20;2.00;;;;;;;6.49;79.47;100354.95;102451;1299;59724;-63
2023/01/03 10:13:17;;;;;;;9.80;1.80;;;;;;;6.81;76.93;100350.33;102650;1289;60717;-67
2023/01/03 10:16:32;;;;;;;10.00;1.60;;;;;;;6.90;76.47;100347.55;102613;1294;74019;-64
2023/01/03 10:19:34;;;;;;;10.10;1.90;;;;;;;7.41;73.46;100349.31;102220;1294;68373;-64
2023/01/03 10:22:29;;;;;;;9.90;1.90;;;;;;;7.56;72.08;100348.05;102281;1295;73678;-67
2023/01/03 10:25:21;;;;;;;10.50;2.20;;;;;;;7.59;72.02;100347.71;102478;1295;59617;-66
2023/01/03 10:28:24;;;;;;;9.30;2.10;;;;;;;7.22;72.59;100350.24;102501;1299;59702;-66
2023/01/03 10:31:47;;;;;;;10.30;2.60;;;;;;;6.97;74.05;100353.96;102591;1299;72470;-65
2023/01/03 10:34:38;;;;;;;11.40;2.60;;;;;;;6.76;75.32;100358.37;102075;1305;68359;-65
2023/01/03 10:37:28;;;;;;;10.20;2.70;;;;;;;6.57;76.68;100357.54;101993;1302;73713;-65
2023/01/03 10:40:16;;;;;;;12.00;2.00;;;;;;;6.60;77.14;100364.79;101733;1301;59860;-65
2023/01/03 10:43:25;;;;;;;9.30;1.80;;;;;;;6.72;77.21;100367.25;101988;1300;59676;-66
2023/01/03 10:46:21;;;;;;;9.20;1.50;;;;;;;6.62;76.94;100373.98;101922;1301;72092;-67
2023/01/03 10:49:25;;;;;;;7.60;1.60;;;;;;;6.49;77.43;100376.63;101994;1297;68186;-64
2023/01/03 10:52:23;;;;;;;10.50;1.90;;;;;;;6.35;77.79;100381.11;101976;1302;71771;-64
2023/01/03 10:55:15;;;;;;;12.30;2.20;;;;;;;6.19;78.78;100386.56;101881;1303;59861;-63
2023/01/03 10:58:25;;;;;;;7.90;1.90;;;;;;;6.07;79.90;100395.16;101719;1297;60177;-65
2023/01/03 11:01:23;;;;;;;7.50;1.80;;;;;;;5.90;80.45;100397.27;102023;1295;74095;-66
2023/01/03 11:04:18;;;;;;;8.20;1.80;;;;;;;5.74;82.00;100398.77;101936;1303;67259;-65
2023/01/03 11:07:12;;;;;;;8.90;2.10;;;;;;;5.65;82.52;100400.66;101963;1302;73909;-64
2023/01/03 11:10:01;;;;;;;9.10;2.30;;;;;;;5.55;83.50;100405.04;101825;1299;59700;-66
2023/01/03 11:12:51;;;;;;;9.40;2.10;;;;;;;5.44;84.26;100404.38;102273;1299;60076;-63
2023/01/03 11:15:39;;;;;;;8.10;1.80;;;;;;;5.37;85.12;100398.54;102271;1298;73141;-64
2023/01/03 11:18:30;;;;;;;10.70;2.50;;;;;;;5.31;85.65;100403.27;102706;1298;66612;-66
2023/01/03 11:21:33;;;;;;;11.10;2.30;;;;;;;5.20;86.48;100409.61;102130;1294;71542;-65
2023/01/03 11:24:59;;;;;;;7.50;1.90;;;;;;;5.13;87.57;100415.26;102193;1294;59664;-64
2023/01/03 11:28:11;;;;;;;8.20;1.80;;;;;;;5.02;87.94;100413.52;102520;1289;59598;-64
2023/01/03 11:31:37;;;;;;;15.80;2.70;;;;;;;5.00;88.06;100416.23;102434;1298;74040;-66
2023/01/03 11:35:00;;;;;;;9.00;2.50;;;;;;;4.97;88.72;100427.66;101996;1292;69417;-64
2023/01/03 11:38:33;;;;;;;5.90;1.60;;;;;;;4.91;89.64;100423.00;102010;1303;72431;-65
2023/01/03 11:41:27;;;;;;;9.90;2.00;;;;;;;4.86;90.02;100430.07;102012;1303;59692;-65
2023/01/03 11:45:10;;;;;;;8.20;2.00;;;;;;;4.83;90.12;100429.71;101935;1300;61365;-65
2023/01/03 11:49:03;;;;;;;9.90;2.20;;;;;;;4.83;90.21;100425.16;101454;1309;73496;-63
2023/01/03 11:52:29;;;;;;;9.50;2.20;;;;;;;4.84;90.72;100427.75;100446;1315;67767;-64
2023/01/03 11:55:59;;;;;;;8.20;1.80;;;;;;;4.86;90.82;100426.25;100625;1314;73835;-64
2023/01/03 11:58:58;;;;;;;10.20;2.20;;;;;;;4.83;91.03;100431.67;100698;1318;59780;-66
2023/01/03 12:02:17;;;;;;;11.00;2.40;;;;;;;4.84;91.14;100432.67;100668;1308;60199;-62
2023/01/03 12:05:35;;;;;;;9.20;2.50;;;;;;;4.86;90.90;100430.45;100473;1316;74218;-66
2023/01/03 12:08:43;;;;;;;8.00;2.10;;;;;;;4.91;90.31;100437.26;100789;1317;67878;-64
2023/01/03 12:11:42;;;;;;;8.50;2.40;;;;;;;4.98;90.02;100445.89;100851;1300;72106;-65
2023/01/03 12:14:39;;;;;;;9.80;1.90;;;;;;;5.01;90.13;100445.56;101026;1310;60025;-67
2023/01/03 12:17:46;;;;;;;11.00;2.40;;;;;;;4.95;90.06;100449.88;101073;1310;61213;-66
2023/01/03 12:20:44;;;;;;;11.70;2.40;;;;;;;4.92;90.34;100447.73;101280;1310;74893;-69
2023/01/03 12:23:49;;;;;;;10.70;2.40;;;;;;;4.93;90.92;100447.86;101489;1306;66070;-67
2023/01/03 12:26:42;;;;;;;9.20;2.50;;;;;;;4.97;90.73;100457.35;102308;1298;73420;-65
2023/01/03 12:29:46;;;;;;;9.90;2.30;;;;;;;5.04;90.72;100452.27;102651;1299;60391;-67
2023/01/03 12:33:29;;;;;;;9.20;2.30;;;;;;;5.06;90.77;100459.02;102344;1294;59700;-62
2023/01/03 12:36:50;;;;;;;9.40;2.30;;;;;;;5.03;89.93;100462.16;102423;1294;72190;-67
2023/01/03 12:39:55;;;;;;;8.30;1.70;;;;;;;5.02;89.85;100469.06;102359;1294;68629;-65
2023/01/03 12:43:03;;;;;;;11.50;2.10;;;;;;;4.99;90.09;100470.97;102458;1297;72849;-65
2023/01/03 12:46:14;;;;;;;11.50;2.60;;;;;;;4.93;90.46;100478.80;102503;1295;59858;-67
2023/01/03 12:49:12;;;;;;;8.50;2.10;;;;;;;4.90;91.15;100481.23;102425;1299;59542;-66
2023/01/03 12:52:01;;;;;;;10.40;2.10;;;;;;;4.83;91.33;100477.71;102228;1299;74029;-68
2023/01/03 12:55:01;;;;;;;13.70;3.40;;;;;;;4.82;91.22;100480.58;102465;1297;69209;-66
2023/01/03 12:58:44;;;;;;;10.50;2.60;;;;;;;4.80;91.17;100477.85;102481;1296;73702;-67
2023/01/03 13:02:03;;;;;;;9.30;2.20;;;;;;;4.79;90.57;100478.09;102256;1299;59572;-67
2023/01/03 13:05:12;;;;;;;7.70;1.90;;;;;;;4.80;90.14;100477.69;102487;1289;60553;-66
2023/01/03 13:08:22;;;;;;;10.40;2.20;;;;;;;4.81;88.99;100480.45;102356;1295;74267;-65
2023/01/03 13:11:37;;;;;;;9.90;1.80;;;;;;;4.78;88.51;100482.52;102545;1294;68087;-65
2023/01/03 13:14:28;;;;;;;7.10;1.70;;;;;;;4.76;88.34;100487.01;102405;1288;72458;-66
2023/01/03 13:17:19;;;;;;;9.90;1.80;;;;;;;4.75;88.50;100488.10;102183;1291;60077;-68
2023/01/03 13:20:13;;;;;;;9.70;1.80;;;;;;;4.73;88.87;100492.95;102387;1294;60948;-65
2023/01/03 13:23:20;;;;;;;9.50;1.80;;;;;;;4.70;89.59;100499.95;102530;1295;72700;-65
2023/01/03 13:26:19;;;;;;;8.00;2.10;;;;;;;4.66;90.48;100501.51;102473;1294;67770;-68
2023/01/03 13:29:33;;;;;;;9.20;2.60;;;;;;;4.63;91.42;100505.72;102518;1297;73251;-66
2023/01/03 13:32:24;;;;;;;7.30;2.50;;;;;;;4.59;92.27;100505.73;102202;1299;59693;-65
2023/01/03 13:35:16;;;;;;;7.60;2.00;;;;;;;4.52;93.00;100509.73;102594;1294;60015;-66
2023/01/03 13:38:31;;;;;;;8.00;2.30;;;;;;;4.42;93.78;100506.13;102391;1295;73521;-65
2023/01/03 13:41:39;;;;;;;7.80;1.70;;;;;;;4.41;94.17;100510.58;102212;1296;68339;-63
2023/01/03 13:44:27;;;;;;;8.70;2.00;;;;;;;4.38;94.16;100508.05;102355;1299;73758;-64
2023/01/03 13:47:26;;;;;;;7.40;2.20;;;;;;;4.36;94.46;100509.37;102341;1291;59680;-65
2023/01/03 13:50:21;;;;;;;8.10;2.10;;;;;;;4.34;93.82;100508.04;102194;1298;60366;-65
2023/01/03 13:53:09;;;;;;;9.20;2.80;;;;;;;4.32;93.71;100506.90;102450;1294;73884;-68
2023/01/03 13:56:18;;;;;;;8.10;2.30;;;;;;;4.32;93.67;100510.43;102454;1291;67532;-67
2023/01/03 13:59:33;;;;;;;12.70;3.20;;;;;;;4.29;93.56;100516.52;102602;1300;73522;-65
2023/01/03 14:03:09;;;;;;;11.50;2.60;;;;;;;4.30;93.58;100518.80;101703;1299;1003481;-65
2023/01/03 14:06:03;;;;;;;13.00;3.10;;;;;;;4.33;93.65;100527.80;102493;1291;59864;-64
2023/01/03 14:09:05;;;;;;;10.20;2.60;;;;;;;4.34;93.91;100530.56;102354;1292;73892;-67
2023/01/03 14:13:00;;;;;;;8.70;2.60;;;;;;;4.34;93.57;100527.20;102458;1295;66803;-65
2023/01/03 14:15:49;;;;;;;10.00;2.90;;;;;;;4.35;93.30;100533.85;102083;1299;72955;-65
2023/01/03 14:18:38;;;;;;;11.20;2.70;;;;;;;4.35;93.16;100537.34;102616;1294;59748;-65
2023/01/03 14:21:40;;;;;;;10.80;2.90;;;;;;;4.37;93.04;100542.00;102304;1301;59723;-65
2023/01/03 14:24:34;;;;;;;10.70;2.50;;;;;;;4.38;93.18;100541.63;102638;1299;74136;-66
2023/01/03 14:27:42;;;;;;;10.60;3.50;;;;;;;4.38;93.19;100542.85;102436;1305;67601;-66
2023/01/03 14:30:35;;;;;;;9.60;2.70;;;;;;;4.38;93.38;100543.89;102399;1299;73603;-65
2023/01/03 14:33:33;;;;;;;7.30;1.90;;;;;;;4.37;93.19;100546.24;102318;1295;59791;-66
2023/01/03 14:36:21;;;;;;;10.10;2.60;;;;;;;4.34;93.23;100549.70;102378;1291;59648;-66
2023/01/03 14:39:21;;;;;;;10.90;2.60;;;;;;;4.33;93.29;100553.61;102352;1299;73959;-65
2023/01/03 14:42:15;;;;;;;9.60;2.90;;;;;;;4.32;93.87;100552.79;102373;1297;68881;-65
2023/01/03 14:45:06;;;;;;;10.20;2.80;;;;;;;4.31;93.88;100562.65;102390;1299;73460;-66
2023/01/03 14:47:54;;;;;;;11.10;2.90;;;;;;;4.30;93.82;100573.06;102444;1294;59731;-66
2023/01/03 14:50:43;;;;;;;12.70;3.30;;;;;;;4.30;94.22;100580.10;102222;1297;60319;-67
2023/01/03 14:53:34;;;;;;;10.60;3.40;;;;;;;4.29;94.57;100587.52;102232;1299;74120;-65
2023/01/03 14:56:25;;;;;;;10.40;3.00;;;;;;;4.23;95.59;100602.01;102393;1297;67176;-66